Time;durP1;ratioP1;P1;durP2;ratioP2;P2;SDS_P1;SDS_P2;PMS_P1;PMS_P2;Temp;Humidity;BMP_temperature;BMP_pressure;BME280_temperature;BME280_humidity;BME280_pressure;Samples;Min_cycle;Max_cycle;Signal;HPM_P1;HPM_P2
2021/12/03 00:01:42;;;;;;;9.23;5.32;;;;;;;4.58;72.26;99380.72;5026140;28;20037;-83
2021/12/03 00:04:09;;;;;;;10.43;5.57;;;;;;;4.57;72.17;99381.66;5027893;28;20493;-83
2021/12/03 00:06:37;;;;;;;9.98;5.70;;;;;;;4.56;72.24;99385.25;4999695;28;20489;-83
2021/12/03 00:09:06;;;;;;;10.48;5.32;;;;;;;4.56;72.34;99401.84;5023577;28;20111;-83
2021/12/03 00:11:37;;;;;;;11.52;6.25;;;;;;;4.53;72.46;99409.97;5023924;28;20044;-83
2021/12/03 00:14:03;;;;;;;12.02;5.82;;;;;;;4.53;72.47;99417.03;5017311;28;20046;-83
2021/12/03 00:16:30;;;;;;;9.90;4.97;;;;;;;4.52;72.48;99410.91;5022986;28;20046;-83
2021/12/03 00:18:57;;;;;;;10.25;5.60;;;;;;;4.53;72.57;99419.66;5039223;28;20049;-83
2021/12/03 00:21:26;;;;;;;10.65;5.80;;;;;;;4.51;72.39;99413.66;5027060;28;20069;-83
2021/12/03 00:23:53;;;;;;;9.18;5.63;;;;;;;4.52;72.75;99412.69;5024910;28;20045;-83
2021/12/03 00:26:19;;;;;;;14.23;6.35;;;;;;;4.50;72.55;99412.81;5042267;28;20037;-83
2021/12/03 00:28:46;;;;;;;12.65;6.15;;;;;;;4.51;72.58;99432.06;5002208;28;20432;-83
2021/12/03 00:31:13;;;;;;;15.60;8.05;;;;;;;4.50;72.77;99432.97;4986022;28;20056;-83
2021/12/03 00:33:40;;;;;;;10.35;5.70;;;;;;;4.50;72.66;99436.47;5006468;28;20055;-83
2021/12/03 00:36:09;;;;;;;11.93;6.47;;;;;;;4.49;72.89;99434.78;5023563;28;20045;-83
2021/12/03 00:39:01;;;;;;;12.15;6.15;;;;;;;4.40;73.01;99445.09;5021708;28;20499;-83
2021/12/03 00:41:35;;;;;;;16.17;8.23;;;;;;;4.46;73.00;99450.78;4986489;28;20057;-83
2021/12/03 00:44:02;;;;;;;17.83;8.73;;;;;;;4.47;72.80;99454.25;4978973;28;20049;-83
2021/12/03 00:46:28;;;;;;;16.95;8.10;;;;;;;4.47;72.83;99457.69;5034010;28;20053;-83
2021/12/03 00:48:55;;;;;;;12.35;7.32;;;;;;;4.46;72.95;99457.81;4989298;28;20061;-83
2021/12/03 00:51:23;;;;;;;13.13;7.38;;;;;;;4.46;72.69;99448.16;5009479;28;20045;-83
2021/12/03 00:53:50;;;;;;;12.23;6.68;;;;;;;4.45;72.94;99453.50;5043057;28;20049;-83
2021/12/03 00:56:18;;;;;;;11.77;6.20;;;;;;;4.44;72.68;99444.78;5027436;28;20068;-83
2021/12/03 00:58:45;;;;;;;11.35;6.75;;;;;;;4.45;72.59;99445.63;5014911;28;20030;-83
2021/12/03 01:01:13;;;;;;;12.45;6.53;;;;;;;4.44;72.70;99452.66;5007797;28;20403;-83
2021/12/03 01:03:40;;;;;;;10.95;6.85;;;;;;;4.42;72.70;99453.72;5005829;28;20038;-83
2021/12/03 01:06:07;;;;;;;13.07;6.40;;;;;;;4.43;73.01;99455.41;5021421;28;20830;-83
2021/12/03 01:08:37;;;;;;;8.63;5.55;;;;;;;4.43;72.67;99460.69;4986918;28;20054;-83
2021/12/03 01:11:09;;;;;;;11.43;6.68;;;;;;;4.39;72.73;99467.91;4981729;28;20048;-83
2021/12/03 01:13:37;;;;;;;17.00;6.97;;;;;;;4.40;72.64;99474.88;5038804;28;20050;-83
2021/12/03 01:16:06;;;;;;;14.35;6.95;;;;;;;4.41;73.01;99476.53;5005304;28;20042;-83
2021/12/03 01:18:33;;;;;;;12.68;6.72;;;;;;;4.41;72.88;99481.78;5025716;28;20045;-83
2021/12/03 01:21:00;;;;;;;13.70;6.68;;;;;;;4.38;72.89;99479.38;5024134;28;20053;-83
2021/12/03 01:23:27;;;;;;;10.15;6.57;;;;;;;4.37;72.94;99488.19;5005781;28;20125;-83
2021/12/03 01:25:53;;;;;;;12.48;6.53;;;;;;;4.37;72.99;99488.19;5026211;28;20551;-83
2021/12/03 01:28:21;;;;;;;10.73;6.70;;;;;;;4.37;73.03;99496.09;5026605;28;20053;-83
2021/12/03 01:30:48;;;;;;;13.07;7.05;;;;;;;4.37;72.80;99498.72;5009454;28;20057;-83
2021/12/03 01:33:15;;;;;;;10.90;6.93;;;;;;;4.35;72.81;99498.84;5038278;28;20041;-83
2021/12/03 01:35:42;;;;;;;11.60;7.05;;;;;;;4.36;72.60;99499.69;5026116;28;21073;-83
2021/12/03 01:38:09;;;;;;;10.82;6.57;;;;;;;4.35;72.82;99501.47;5026233;28;20120;-83
2021/12/03 01:40:36;;;;;;;11.48;6.82;;;;;;;4.33;72.42;99502.50;5040796;28;20129;-83
2021/12/03 01:43:05;;;;;;;11.35;6.88;;;;;;;4.31;72.18;99497.34;5027780;28;20099;-83
2021/12/03 01:45:34;;;;;;;11.27;6.35;;;;;;;4.30;72.17;99493.06;5024457;28;20057;-83
2021/12/03 01:48:02;;;;;;;11.05;5.90;;;;;;;4.32;72.48;99498.19;5024703;28;20484;-83
2021/12/03 01:50:32;;;;;;;12.73;6.90;;;;;;;4.30;72.71;99497.44;5027699;28;20400;-83
2021/12/03 01:52:59;;;;;;;14.13;6.82;;;;;;;4.29;72.49;99499.25;5017558;28;20111;-84
2021/12/03 01:55:31;;;;;;;13.10;6.60;;;;;;;4.29;72.42;99501.03;5016147;28;20042;-83
2021/12/03 01:57:58;;;;;;;14.52;7.18;;;;;;;4.29;72.53;99499.25;5041061;28;20049;-83
2021/12/03 02:00:36;;;;;;;12.45;7.18;;;;;;;4.25;72.51;99504.81;5023826;28;20053;-83
2021/12/03 02:03:05;;;;;;;14.80;7.65;;;;;;;4.27;72.23;99503.75;5022424;28;20200;-83
2021/12/03 02:05:32;;;;;;;9.77;6.47;;;;;;;4.25;72.45;99515.31;5012640;28;20409;-83
2021/12/03 02:07:59;;;;;;;11.55;6.30;;;;;;;4.25;72.30;99504.81;5007298;28;20128;-83
2021/12/03 02:10:26;;;;;;;9.98;6.78;;;;;;;4.24;72.36;99509.22;5027071;28;20045;-83
2021/12/03 02:12:55;;;;;;;12.43;6.85;;;;;;;4.23;72.68;99515.44;5013468;28;20117;-83
2021/12/03 02:15:21;;;;;;;11.40;6.13;;;;;;;4.23;72.52;99520.69;4979768;28;20104;-83
2021/12/03 02:17:49;;;;;;;12.30;6.75;;;;;;;4.24;72.46;99518.91;5027346;28;20131;-83
2021/12/03 02:20:16;;;;;;;11.43;6.57;;;;;;;4.22;72.64;99512.91;5026026;28;20046;-83
2021/12/03 02:22:44;;;;;;;12.52;6.45;;;;;;;4.21;72.55;99529.63;5024899;28;20049;-83
2021/12/03 02:25:14;;;;;;;10.30;6.18;;;;;;;4.19;72.31;99529.72;5027956;28;20064;-83
2021/12/03 02:27:41;;;;;;;10.52;6.00;;;;;;;4.18;72.36;99529.84;5022791;28;20068;-83
2021/12/03 02:30:08;;;;;;;9.77;5.80;;;;;;;4.17;72.12;99536.84;5010530;28;20643;-83
2021/12/03 02:32:37;;;;;;;10.48;6.65;;;;;;;4.16;72.12;99536.97;5023043;28;20037;-83
2021/12/03 02:35:04;;;;;;;10.02;6.05;;;;;;;4.13;72.04;99528.34;5021668;28;20045;-83
2021/12/03 02:37:31;;;;;;;10.23;5.65;;;;;;;4.11;72.27;99529.38;5022513;28;20124;-83
2021/12/03 02:39:57;;;;;;;10.23;5.78;;;;;;;4.10;72.23;99532.97;5039111;28;20492;-83
2021/12/03 02:42:26;;;;;;;11.00;5.60;;;;;;;4.09;71.81;99539.16;5021851;28;20041;-83
2021/12/03 02:44:53;;;;;;;10.38;5.18;;;;;;;4.06;71.76;99542.81;5023259;28;20049;-83
2021/12/03 02:47:20;;;;;;;9.27;5.57;;;;;;;4.06;72.04;99547.25;5024226;28;20041;-83
2021/12/03 02:49:47;;;;;;;9.98;5.70;;;;;;;4.03;71.85;99540.41;5006430;28;20041;-83
2021/12/03 02:52:14;;;;;;;9.80;5.65;;;;;;;4.02;71.94;99546.63;5002277;28;20053;-83
2021/12/03 02:54:41;;;;;;;9.02;5.65;;;;;;;4.01;71.92;99541.44;5006927;28;20045;-83
2021/12/03 02:57:08;;;;;;;11.45;6.40;;;;;;;3.99;71.81;99544.16;5017063;28;20137;-83
2021/12/03 02:59:34;;;;;;;8.15;5.50;;;;;;;3.98;72.04;99541.66;5022079;28;20068;-83
2021/12/03 03:02:03;;;;;;;10.02;5.13;;;;;;;3.96;72.04;99544.38;5024421;28;20794;-83
2021/12/03 03:05:22;;;;;;;11.02;5.90;;;;;;;3.85;71.79;99539.00;4990287;28;20073;-83
2021/12/03 03:07:50;;;;;;;9.25;5.53;;;;;;;3.87;71.68;99545.00;4943654;28;20126;-83
2021/12/03 03:10:21;;;;;;;9.10;5.53;;;;;;;3.86;71.60;99540.66;5020472;28;20831;-83
2021/12/03 03:12:48;;;;;;;8.88;5.82;;;;;;;3.84;71.84;99556.56;5007956;28;20052;-84
2021/12/03 03:15:16;;;;;;;10.90;4.70;;;;;;;3.83;71.85;99549.59;5023802;28;20072;-84
2021/12/03 03:17:44;;;;;;;10.88;5.82;;;;;;;3.83;71.61;99549.59;5005597;28;20037;-83
2021/12/03 03:20:12;;;;;;;13.40;6.25;;;;;;;3.83;71.32;99552.22;5015330;28;20045;-83
2021/12/03 03:22:40;;;;;;;12.73;5.57;;;;;;;3.81;71.17;99559.34;5006035;28;20056;-84
2021/12/03 03:25:10;;;;;;;11.57;6.25;;;;;;;3.79;71.41;99560.38;5037336;28;20049;-83
2021/12/03 03:27:38;;;;;;;10.85;5.75;;;;;;;3.79;71.24;99570.91;5023397;28;20049;-84
2021/12/03 03:30:08;;;;;;;8.52;5.78;;;;;;;3.76;71.22;99574.56;5022296;28;20038;-83
2021/12/03 03:32:35;;;;;;;10.73;5.82;;;;;;;3.74;71.16;99581.72;4987000;28;20046;-83
2021/12/03 03:35:02;;;;;;;12.02;5.45;;;;;;;3.73;71.14;99585.28;5023746;28;20045;-84
2021/12/03 03:37:29;;;;;;;11.63;6.70;;;;;;;3.73;71.31;99589.69;5039751;28;20065;-84
2021/12/03 03:39:56;;;;;;;12.30;6.63;;;;;;;3.70;71.00;99596.81;5010289;28;20053;-83
2021/12/03 03:42:22;;;;;;;10.82;5.85;;;;;;;3.69;70.98;99586.44;5003903;28;20501;-83
2021/12/03 03:44:49;;;;;;;15.82;6.95;;;;;;;3.68;71.16;99590.81;5041292;28;20050;-83
2021/12/03 03:47:16;;;;;;;10.98;6.65;;;;;;;3.68;71.16;99608.34;5001072;28;20076;-83
2021/12/03 03:49:43;;;;;;;12.65;6.57;;;;;;;3.66;71.10;99607.59;5024414;28;20060;-83
2021/12/03 03:52:09;;;;;;;10.45;6.07;;;;;;;3.65;71.15;99619.06;5004491;28;20050;-83
2021/12/03 03:54:36;;;;;;;15.07;7.30;;;;;;;3.63;71.01;99624.41;5036839;28;20030;-83
2021/12/03 03:57:04;;;;;;;14.88;7.65;;;;;;;3.62;71.18;99633.22;5004574;28;20912;-83
2021/12/03 03:59:30;;;;;;;14.77;7.50;;;;;;;3.62;71.27;99629.75;5021732;28;20041;-83
2021/12/03 04:01:57;;;;;;;16.85;8.55;;;;;;;3.61;71.27;99633.31;5019687;28;20051;-83
2021/12/03 04:04:25;;;;;;;33.63;13.73;;;;;;;3.60;71.58;99635.09;5005985;28;20123;-83
2021/12/03 04:06:53;;;;;;;117.10;35.30;;;;;;;3.61;71.63;99631.56;5025541;28;20077;-83
2021/12/03 04:09:20;;;;;;;107.43;37.30;;;;;;;3.60;71.78;99639.50;5004163;28;20041;-83
2021/12/03 04:11:47;;;;;;;59.25;22.95;;;;;;;3.60;71.69;99639.50;5002954;28;20041;-84
2021/12/03 04:18:00;;;;;;;21.00;9.63;;;;;;;3.55;71.79;99631.91;4971074;28;20068;-83
2021/12/03 04:20:27;;;;;;;20.40;10.52;;;;;;;3.56;71.95;99638.88;5007498;28;20058;-83
2021/12/03 04:22:54;;;;;;;21.90;12.93;;;;;;;3.56;71.99;99644.13;5024440;28;20042;-83
2021/12/03 04:25:22;;;;;;;22.60;15.60;;;;;;;3.56;71.96;99636.25;5008333;28;20045;-83
2021/12/03 04:27:49;;;;;;;22.25;15.25;;;;;;;3.57;72.18;99637.94;5009124;28;20046;-83
2021/12/03 04:30:19;;;;;;;22.67;11.82;;;;;;;3.56;72.19;99633.63;5007713;28;20115;-84
2021/12/03 04:32:46;;;;;;;15.98;8.05;;;;;;;3.58;72.60;99636.97;5041004;28;20049;-84
2021/12/03 04:35:13;;;;;;;15.82;8.05;;;;;;;3.59;72.42;99637.84;5016333;28;20451;-83
2021/12/03 04:37:40;;;;;;;13.52;6.95;;;;;;;3.59;72.59;99638.69;5033513;28;20048;-83
2021/12/03 04:40:12;;;;;;;12.85;7.13;;;;;;;3.59;72.61;99651.81;4990271;28;20045;-82
2021/12/03 04:42:39;;;;;;;10.15;5.95;;;;;;;3.60;72.42;99650.84;4980089;28;21178;-83
2021/12/03 04:45:08;;;;;;;12.90;6.38;;;;;;;3.59;72.54;99650.97;5021212;28;20048;-83
2021/12/03 04:47:35;;;;;;;16.85;7.05;;;;;;;3.60;72.53;99652.63;5025461;28;20045;-83
2021/12/03 04:53:49;;;;;;;13.68;7.65;;;;;;;3.58;72.57;99668.47;4977995;28;20042;-83
2021/12/03 04:56:16;;;;;;;12.73;7.10;;;;;;;3.59;72.67;99666.72;5025847;28;20101;-83
2021/12/03 04:58:43;;;;;;;15.25;8.13;;;;;;;3.58;72.54;99667.63;5025375;28;20065;-83
2021/12/03 05:01:10;;;;;;;15.57;7.63;;;;;;;3.58;72.56;99665.84;5040597;28;20492;-83
2021/12/03 05:03:37;;;;;;;15.25;7.60;;;;;;;3.57;72.59;99663.34;5021468;28;20065;-83
2021/12/03 05:06:08;;;;;;;16.65;8.20;;;;;;;3.57;72.40;99660.72;5024515;28;20448;-83
2021/12/03 05:08:35;;;;;;;23.02;9.40;;;;;;;3.55;72.25;99663.44;5026714;28;20512;-83
2021/12/03 05:11:02;;;;;;;17.10;7.82;;;;;;;3.54;72.33;99666.16;5003987;28;20115;-83
2021/12/03 05:13:32;;;;;;;15.07;7.75;;;;;;;3.54;72.25;99671.41;5024953;28;20140;-83
2021/12/03 05:15:59;;;;;;;15.20;7.30;;;;;;;3.51;72.29;99677.69;5041684;28;20049;-83
2021/12/03 05:18:27;;;;;;;14.80;8.07;;;;;;;3.51;72.14;99689.94;5027668;28;20124;-83
2021/12/03 05:20:57;;;;;;;18.63;9.55;;;;;;;3.50;72.18;99696.16;5006792;28;20041;-83
2021/12/03 05:23:31;;;;;;;16.38;8.55;;;;;;;3.44;71.89;99686.88;5015490;28;20107;-83
2021/12/03 05:25:58;;;;;;;16.90;7.90;;;;;;;3.45;72.26;99684.16;5006600;28;20049;-83
2021/12/03 05:28:26;;;;;;;12.88;6.43;;;;;;;3.45;72.38;99685.94;5027667;28;20045;-83
2021/12/03 05:30:54;;;;;;;15.15;7.50;;;;;;;3.43;72.22;99690.44;5039880;28;20119;-83
2021/12/03 05:33:21;;;;;;;14.63;7.70;;;;;;;3.44;71.90;99700.00;5021299;28;20477;-83
2021/12/03 05:35:48;;;;;;;15.50;8.27;;;;;;;3.42;71.92;99694.00;5026968;28;20404;-84
2021/12/03 05:38:15;;;;;;;16.10;7.32;;;;;;;3.40;72.09;99695.88;5016886;28;20053;-83
2021/12/03 05:41:09;;;;;;;13.38;7.55;;;;;;;3.30;72.12;99703.44;5040343;28;20516;-83
2021/12/03 05:43:36;;;;;;;16.50;7.72;;;;;;;3.36;71.95;99703.09;4975154;28;20045;-83
2021/12/03 05:46:02;;;;;;;16.23;6.97;;;;;;;3.35;71.83;99716.31;5024498;28;20037;-83
2021/12/03 05:48:29;;;;;;;16.85;7.75;;;;;;;3.34;72.01;99718.09;5024539;28;20076;-83
2021/12/03 05:50:56;;;;;;;18.45;8.48;;;;;;;3.32;71.87;99713.88;5002648;28;20092;-83
2021/12/03 05:53:23;;;;;;;17.63;9.02;;;;;;;3.31;71.86;99717.41;5001516;28;20049;-83
2021/12/03 05:55:49;;;;;;;15.02;8.02;;;;;;;3.31;71.83;99722.66;5007427;28;20418;-83
2021/12/03 05:58:17;;;;;;;21.05;8.25;;;;;;;3.30;71.74;99723.59;5005791;28;20042;-83
2021/12/03 06:00:46;;;;;;;18.42;8.27;;;;;;;3.28;71.70;99733.34;5018301;28;20038;-84
2021/12/03 06:03:13;;;;;;;18.05;9.30;;;;;;;3.28;71.75;99735.97;4989778;28;20049;-83
2021/12/03 06:05:40;;;;;;;19.13;8.52;;;;;;;3.25;71.72;99739.63;5020522;28;20041;-83
2021/12/03 06:08:08;;;;;;;15.45;8.10;;;;;;;3.23;71.37;99738.88;5020223;28;20057;-83
2021/12/03 06:10:35;;;;;;;16.52;8.45;;;;;;;3.22;71.62;99739.81;5021214;28;20061;-83
2021/12/03 06:13:02;;;;;;;19.23;9.43;;;;;;;3.20;71.54;99737.25;5025179;28;20048;-83
2021/12/03 06:15:29;;;;;;;17.42;9.02;;;;;;;3.20;71.32;99739.06;5008232;28;20054;-83
2021/12/03 06:18:00;;;;;;;17.98;8.55;;;;;;;3.15;71.22;99749.81;5000346;28;20057;-83
2021/12/03 06:20:27;;;;;;;15.02;7.38;;;;;;;3.17;71.29;99741.88;5023346;28;20041;-83
2021/12/03 06:22:54;;;;;;;17.33;7.53;;;;;;;3.13;71.21;99743.84;5006783;28;20516;-82
2021/12/03 06:25:21;;;;;;;15.10;7.50;;;;;;;3.12;71.43;99741.28;5007653;28;20050;-82
2021/12/03 06:27:51;;;;;;;21.95;8.43;;;;;;;3.08;71.20;99734.53;4999114;28;20128;-82
2021/12/03 06:30:20;;;;;;;22.83;8.93;;;;;;;3.08;71.28;99739.78;5000313;28;20540;-81
2021/12/03 06:32:48;;;;;;;15.98;7.80;;;;;;;3.07;71.36;99746.81;5014248;28;20888;-81
2021/12/03 06:35:15;;;;;;;18.42;8.60;;;;;;;3.05;71.41;99748.66;5021589;28;20052;-81
2021/12/03 06:37:43;;;;;;;18.05;8.18;;;;;;;3.03;71.21;99759.28;5013231;28;20076;-81
2021/12/03 06:40:14;;;;;;;20.10;8.70;;;;;;;3.02;71.26;99759.34;5001398;28;20045;-81
2021/12/03 06:42:41;;;;;;;18.58;8.50;;;;;;;3.00;71.11;99762.09;5009010;28;20041;-81
2021/12/03 06:45:09;;;;;;;16.08;8.05;;;;;;;3.00;71.07;99774.31;5001390;28;20045;-81
2021/12/03 06:47:36;;;;;;;20.10;8.50;;;;;;;2.98;71.32;99784.09;5018728;28;20041;-81
2021/12/03 06:50:08;;;;;;;16.58;8.02;;;;;;;2.97;71.22;99793.72;4995019;28;20421;-82
2021/12/03 06:52:37;;;;;;;21.17;8.80;;;;;;;2.95;71.38;99787.72;4999921;28;20132;-81
2021/12/03 06:55:05;;;;;;;19.88;7.57;;;;;;;2.93;71.36;99792.22;5003290;28;20049;-81
2021/12/03 06:57:32;;;;;;;16.17;8.23;;;;;;;2.92;70.89;99785.25;5001250;28;20042;-81
2021/12/03 06:59:59;;;;;;;18.88;7.55;;;;;;;2.90;71.03;99789.78;5052610;28;20140;-81
2021/12/03 07:02:25;;;;;;;19.63;8.85;;;;;;;2.89;70.92;99793.31;5038844;28;20152;-81
2021/12/03 07:04:52;;;;;;;19.13;7.72;;;;;;;2.88;71.07;99785.56;5012035;28;20045;-82
2021/12/03 07:07:20;;;;;;;17.45;7.80;;;;;;;2.87;70.88;99792.56;5002750;28;20501;-82
2021/12/03 07:09:48;;;;;;;19.00;7.78;;;;;;;2.86;70.89;99792.66;5022202;28;20103;-81
2021/12/03 07:12:15;;;;;;;18.58;8.48;;;;;;;2.86;70.87;99800.53;5022519;28;20109;-81
2021/12/03 07:14:42;;;;;;;20.42;9.35;;;;;;;2.86;71.20;99805.78;5020063;28;20048;-81
2021/12/03 07:17:09;;;;;;;19.13;8.63;;;;;;;2.85;71.04;99807.56;5027611;28;20045;-81
2021/12/03 07:19:35;;;;;;;19.92;8.25;;;;;;;2.82;71.02;99805.09;5022208;28;20046;-81
2021/12/03 07:22:02;;;;;;;31.80;9.88;;;;;;;2.80;71.26;99807.81;5024104;28;20045;-81
2021/12/03 07:24:32;;;;;;;21.50;10.77;;;;;;;2.81;71.07;99813.91;5018223;28;20407;-81
2021/12/03 07:27:00;;;;;;;27.23;13.20;;;;;;;2.78;71.34;99820.16;5019345;28;20052;-82
2021/12/03 07:29:28;;;;;;;18.85;9.95;;;;;;;2.78;71.04;99817.53;5018366;28;20050;-81
2021/12/03 07:31:56;;;;;;;16.75;9.02;;;;;;;2.78;71.31;99819.31;4995744;28;20054;-81
2021/12/03 07:34:24;;;;;;;21.38;9.20;;;;;;;2.78;71.23;99819.31;5019505;28;20055;-82
2021/12/03 07:36:55;;;;;;;18.52;8.77;;;;;;;2.76;71.14;99834.28;5036949;28;20042;-81
2021/12/03 07:39:22;;;;;;;20.08;9.20;;;;;;;2.75;71.06;99837.84;5020465;28;20496;-81
2021/12/03 07:41:49;;;;;;;22.40;9.63;;;;;;;2.74;71.16;99836.97;5041843;28;20102;-81
2021/12/03 07:44:16;;;;;;;21.65;9.13;;;;;;;2.74;70.78;99836.13;5029416;28;20056;-82
2021/12/03 07:46:42;;;;;;;20.67;9.43;;;;;;;2.71;70.95;99834.53;5016980;28;20050;-82
2021/12/03 07:49:09;;;;;;;20.40;9.38;;;;;;;2.71;71.13;99842.41;5017411;28;20049;-82
2021/12/03 07:51:37;;;;;;;19.73;8.85;;;;;;;2.71;70.84;99839.78;5022394;28;20052;-81
2021/12/03 07:54:04;;;;;;;22.88;9.32;;;;;;;2.72;71.20;99848.47;5006954;28;20045;-82
2021/12/03 07:56:30;;;;;;;23.02;10.52;;;;;;;2.72;71.30;99838.88;5018385;28;20052;-82
2021/12/03 07:58:57;;;;;;;23.55;9.15;;;;;;;2.73;71.44;99850.19;5022766;28;20045;-82
2021/12/03 08:01:24;;;;;;;18.83;9.02;;;;;;;2.73;71.38;99843.16;5019715;28;20061;-82
2021/12/03 08:03:52;;;;;;;22.15;9.45;;;;;;;2.74;71.37;99838.75;5003534;28;20046;-82
2021/12/03 08:06:18;;;;;;;23.35;10.88;;;;;;;2.74;71.27;99844.00;5016136;28;20401;-82
2021/12/03 08:08:45;;;;;;;22.15;9.43;;;;;;;2.74;71.48;99838.75;5022086;28;20077;-82
2021/12/03 08:11:12;;;;;;;25.52;10.90;;;;;;;2.74;71.44;99836.97;5000534;28;20042;-82
2021/12/03 08:13:39;;;;;;;23.75;10.60;;;;;;;2.75;71.42;99846.56;5009110;28;20053;-81
2021/12/03 08:16:06;;;;;;;26.50;9.82;;;;;;;2.75;71.44;99845.72;4981929;28;20044;-82
2021/12/03 08:18:32;;;;;;;19.27;9.05;;;;;;;2.76;71.62;99843.00;5029056;28;20060;-82
2021/12/03 08:20:59;;;;;;;21.88;11.68;;;;;;;2.77;71.91;99835.97;5026600;28;20042;-82
2021/12/03 08:23:28;;;;;;;20.13;10.18;;;;;;;2.77;71.93;99842.06;5007581;28;20862;-82
2021/12/03 08:25:54;;;;;;;26.98;11.55;;;;;;;2.76;71.56;99839.53;5022365;28;20083;-82
2021/12/03 08:28:21;;;;;;;21.92;10.13;;;;;;;2.76;71.79;99842.16;5025102;28;20503;-82
2021/12/03 08:30:50;;;;;;;25.45;10.75;;;;;;;2.76;71.76;99848.22;5019655;28;20052;-82
2021/12/03 08:33:17;;;;;;;24.23;10.45;;;;;;;2.77;72.04;99841.22;5023639;28;20075;-81
2021/12/03 08:35:44;;;;;;;22.13;10.80;;;;;;;2.77;71.78;99844.69;5005905;28;20520;-82
2021/12/03 08:38:11;;;;;;;20.23;9.32;;;;;;;2.79;71.90;99847.22;5007357;28;20041;-82
2021/12/03 08:40:58;;;;;;;24.60;10.30;;;;;;;2.78;71.93;99842.91;5010142;28;20046;-82
2021/12/03 08:43:25;;;;;;;25.15;9.27;;;;;;;2.78;72.28;99843.75;5025513;28;20046;-81
2021/12/03 08:45:54;;;;;;;22.33;9.35;;;;;;;2.79;72.14;99848.06;5023864;28;20064;-83
2021/12/03 08:48:23;;;;;;;21.95;9.38;;;;;;;2.80;72.20;99860.25;5010798;28;20063;-83
2021/12/03 08:51:26;;;;;;;21.08;10.05;;;;;;;2.79;72.16;99860.34;5038253;28;20045;-81
2021/12/03 08:56:39;;;;;;;20.45;9.57;;;;;;;2.79;72.39;99862.94;4953736;28;20141;-81
2021/12/03 08:59:19;;;;;;;20.65;9.10;;;;;;;2.78;72.27;99861.28;5002247;28;20053;-80
2021/12/03 09:02:09;;;;;;;16.40;6.87;;;;;;;2.78;72.47;99867.34;4921112;28;20053;-82
2021/12/03 09:04:36;;;;;;;28.23;10.95;;;;;;;2.81;72.45;99871.59;4981816;28;21093;-85
2021/12/03 09:07:04;;;;;;;20.92;10.38;;;;;;;2.82;72.54;99874.13;5024056;28;20037;-81
2021/12/03 09:09:31;;;;;;;18.77;8.80;;;;;;;2.83;72.47;99867.94;5024107;28;20519;-81
2021/12/03 09:11:59;;;;;;;20.48;8.23;;;;;;;2.83;72.44;99873.19;5018420;28;20104;-81
2021/12/03 09:14:39;;;;;;;17.58;7.90;;;;;;;2.83;72.60;99885.47;5019522;28;20041;-82
2021/12/03 09:25:16;;;;;;;8.82;4.75;;;;;;;2.79;72.40;99863.78;5025309;28;20445;-82
2021/12/03 09:27:42;;;;;;;10.13;4.78;;;;;;;2.82;72.38;99861.03;5049513;28;20037;-83
2021/12/03 09:30:13;;;;;;;11.20;5.00;;;;;;;2.83;72.30;99860.06;5032781;28;20815;-83
2021/12/03 09:32:43;;;;;;;10.50;4.18;;;;;;;2.85;72.23;99859.13;5025054;28;20045;-82
2021/12/03 09:35:10;;;;;;;14.13;5.13;;;;;;;2.83;72.64;99862.69;5023128;28;20052;-82
2021/12/03 09:37:38;;;;;;;15.93;5.68;;;;;;;2.85;72.14;99862.63;5004019;28;20488;-84
2021/12/03 09:40:08;;;;;;;9.63;4.68;;;;;;;2.85;72.48;99857.38;5024327;28;20353;-82
2021/12/03 09:42:38;;;;;;;9.80;4.45;;;;;;;2.87;72.57;99855.50;5007403;28;20068;-82
2021/12/03 09:45:31;;;;;;;9.07;4.20;;;;;;;2.77;72.40;99847.31;5023011;28;20038;-83
2021/12/03 09:48:03;;;;;;;16.45;5.00;;;;;;;2.83;72.54;99846.97;4990668;28;20490;-83
2021/12/03 09:50:30;;;;;;;13.02;5.20;;;;;;;2.86;72.43;99859.06;5000650;28;20132;-82
2021/12/03 09:53:27;;;;;;;13.88;6.07;;;;;;;2.82;72.12;99849.66;5024033;28;20049;-83
2021/12/03 09:55:54;;;;;;;11.48;5.45;;;;;;;2.83;72.41;99854.84;4996761;28;20127;-84
2021/12/03 10:01:31;;;;;;;8.35;4.50;;;;;;;2.84;72.57;99855.66;4996088;28;20049;-81
2021/12/03 10:04:21;;;;;;;12.10;5.20;;;;;;;2.84;72.59;99847.81;5022092;28;20044;-82
2021/12/03 10:13:08;;;;;;;11.65;5.05;;;;;;;2.79;72.15;99861.16;4980044;28;20037;-82
2021/12/03 10:16:10;;;;;;;6.65;3.25;;;;;;;2.80;72.29;99865.50;4964717;28;20050;-83
2021/12/03 10:18:51;;;;;;;10.32;5.63;;;;;;;2.81;72.41;99859.31;4990024;28;20489;-82
2021/12/03 10:41:23;;;;;;;12.45;5.60;;;;;;;2.78;72.04;99825.41;5019155;28;20504;-82
2021/12/03 10:57:20;;;;;;;10.13;5.03;;;;;;;2.84;72.90;99805.84;4984035;28;20046;-81
2021/12/03 11:04:14;;;;;;;18.45;6.95;;;;;;;2.79;72.93;99806.09;5016392;28;20034;-82
2021/12/03 11:11:46;;;;;;;13.45;5.95;;;;;;;2.85;73.13;99791.81;4990675;28;20401;-82
2021/12/03 11:26:48;;;;;;;15.05;7.05;;;;;;;2.92;73.26;99758.19;4984825;28;20045;-80
2021/12/03 11:29:26;;;;;;;12.98;5.57;;;;;;;2.84;73.27;99766.50;4975401;28;20041;-81
2021/12/03 11:40:54;;;;;;;11.35;5.40;;;;;;;2.88;73.57;99756.72;5013000;28;20172;-82
2021/12/03 12:27:04;;;;;;;14.35;6.55;;;;;;;3.02;74.21;99691.16;5021384;28;20452;-81
2021/12/03 13:21:47;;;;;;;12.13;4.90;;;;;;;3.19;74.46;99643.75;5016727;28;20041;-80
2021/12/03 13:36:27;;;;;;;14.18;6.43;;;;;;;3.13;74.24;99645.91;5038615;28;20049;-82
2021/12/03 14:01:07;;;;;;;16.40;7.95;;;;;;;3.15;74.20;99617.78;5029352;28;20053;-82
2021/12/03 14:30:29;;;;;;;9.43;3.90;;;;;;;3.13;73.17;99617.91;4998578;28;20050;-81
2021/12/03 14:41:57;;;;;;;7.63;3.80;;;;;;;3.10;73.10;99610.19;5022255;28;20054;-81
2021/12/03 14:44:40;;;;;;;13.43;5.53;;;;;;;3.12;73.06;99610.97;5009095;28;20049;-81
2021/12/03 14:47:30;;;;;;;12.32;4.82;;;;;;;3.13;73.50;99604.78;5024521;28;20057;-81
2021/12/03 14:52:33;;;;;;;7.68;3.55;;;;;;;3.12;73.53;99605.72;4999515;28;20045;-81
2021/12/03 14:55:07;;;;;;;8.93;3.85;;;;;;;3.14;73.29;99605.63;4988982;28;20116;-81
2021/12/03 14:57:46;;;;;;;5.90;3.70;;;;;;;3.12;73.44;99597.00;4999975;28;20046;-81
2021/12/03 15:00:19;;;;;;;8.88;3.65;;;;;;;3.12;73.38;99599.63;5016107;28;20046;-81
2021/12/03 15:08:36;;;;;;;11.05;6.10;;;;;;;3.07;73.72;99593.81;5015565;28;20500;-81
2021/12/03 15:30:12;;;;;;;24.25;10.57;;;;;;;2.99;73.77;99568.91;5004270;28;20063;-81
2021/12/03 15:40:33;;;;;;;15.70;8.10;;;;;;;2.97;73.76;99567.31;5020227;28;20042;-81
2021/12/03 15:57:13;;;;;;;13.48;7.10;;;;;;;2.90;73.81;99558.13;4996252;28;20153;-83
2021/12/03 16:05:49;;;;;;;7.63;3.67;;;;;;;2.86;74.06;99560.09;4963050;28;20500;-85
2021/12/03 16:08:17;;;;;;;25.73;10.10;;;;;;;2.86;73.80;99543.53;5001344;28;20046;-86
2021/12/03 16:10:54;;;;;;;20.95;8.20;;;;;;;2.86;73.64;99544.38;5006211;28;20065;-87
2021/12/03 16:16:32;;;;;;;13.20;5.88;;;;;;;2.85;73.75;99532.22;5023532;28;20045;-83
2021/12/03 16:22:03;;;;;;;11.52;5.43;;;;;;;2.79;73.65;99522.91;4980510;28;20048;-82
2021/12/03 16:46:39;;;;;;;12.13;5.82;;;;;;;2.79;74.06;99522.06;5003451;28;20405;-83
2021/12/03 16:51:53;;;;;;;8.48;4.82;;;;;;;2.77;74.13;99509.06;5002235;28;20132;-83
2021/12/03 16:54:52;;;;;;;11.60;5.57;;;;;;;2.78;74.37;99512.53;4993018;28;20049;-83
2021/12/03 16:57:28;;;;;;;14.15;5.50;;;;;;;2.78;74.20;99516.00;5010017;28;20041;-81
2021/12/03 16:59:59;;;;;;;12.48;7.35;;;;;;;2.78;74.16;99510.75;5017946;28;20084;-81
2021/12/03 17:08:53;;;;;;;14.45;9.15;;;;;;;2.71;74.39;99488.47;5010413;28;20547;-81
2021/12/03 17:12:17;;;;;;;15.15;9.68;;;;;;;2.71;74.43;99482.38;5001638;28;20052;-82
2021/12/03 17:49:48;;;;;;;19.42;8.98;;;;;;;2.78;74.70;99447.81;5018635;28;22713;-81
2021/12/03 17:52:48;;;;;;;18.45;8.48;;;;;;;2.79;74.88;99443.41;5021110;28;20076;-82
2021/12/03 17:55:59;;;;;;;16.33;7.90;;;;;;;2.77;74.61;99443.53;5010421;28;20366;-82
2021/12/03 17:58:32;;;;;;;17.60;7.70;;;;;;;2.78;74.78;99441.75;4976200;28;20060;-86
2021/12/03 18:01:05;;;;;;;23.50;8.47;;;;;;;2.78;74.63;99439.13;4968047;28;20061;-85
2021/12/03 18:03:42;;;;;;;14.63;7.00;;;;;;;2.80;74.42;99429.38;4988534;28;20050;-86
2021/12/03 18:17:23;;;;;;;10.43;5.70;;;;;;;2.79;74.28;99409.31;5046772;28;20042;-87
2021/12/03 18:47:49;;;;;;;10.13;6.38;;;;;;;2.76;74.09;99375.44;5029321;28;20048;-83
2021/12/03 18:55:36;;;;;;;11.35;5.13;;;;;;;2.74;74.32;99367.66;5024209;28;20109;-80
2021/12/03 18:58:05;;;;;;;11.20;4.68;;;;;;;2.75;74.25;99360.66;5004983;28;20429;-81